createdAt,value
2024-01-12T00:02:21.686Z,48.30
2024-01-12T00:04:49.403Z,48.55
2024-01-12T00:07:17.039Z,50.88
2024-01-12T00:09:45.271Z,49.92
2024-01-12T00:12:14.270Z,52.28
2024-01-12T00:14:41.918Z,51.08
2024-01-12T00:17:09.582Z,49.30
2024-01-12T00:19:37.296Z,47.80
2024-01-12T00:22:05.286Z,49.50
2024-01-12T00:24:32.895Z,45.03
2024-01-12T00:27:00.545Z,47.55
2024-01-12T00:29:29.532Z,47.65
2024-01-12T00:31:58.313Z,44.13
2024-01-12T00:34:25.913Z,50.13
2024-01-12T00:36:54.843Z,43.42
2024-01-12T00:39:22.620Z,47.22
2024-01-12T00:41:52.010Z,41.42
2024-01-12T00:44:20.046Z,51.50
2024-01-12T00:46:51.936Z,44.55
2024-01-12T00:49:20.436Z,49.45
2024-01-12T00:51:48.716Z,43.42
2024-01-12T00:54:16.930Z,48.92
2024-01-12T00:56:44.949Z,44.58
2024-01-12T00:59:12.711Z,44.55
2024-01-12T01:01:40.378Z,42.53
2024-01-12T01:04:09.404Z,44.25
2024-01-12T01:06:37.288Z,51.55
2024-01-12T01:09:05.044Z,46.42
2024-01-12T01:11:32.804Z,46.25
2024-01-12T01:14:00.458Z,45.28
2024-01-12T01:16:28.170Z,45.67
2024-01-12T01:18:55.906Z,46.63
2024-01-12T01:21:25.225Z,43.10
2024-01-12T01:23:52.983Z,41.17
2024-01-12T01:26:20.601Z,39.22
2024-01-12T01:28:48.799Z,42.72
2024-01-12T01:31:16.591Z,49.30
2024-01-12T01:33:44.705Z,40.22
2024-01-12T01:36:12.399Z,44.47
2024-01-12T01:38:41.355Z,44.47
2024-01-12T01:41:09.063Z,45.15
2024-01-12T01:43:36.638Z,45.97
2024-01-12T01:46:04.834Z,40.22
2024-01-12T01:48:33.293Z,46.13
2024-01-12T01:51:01.302Z,44.95
2024-01-12T01:53:29.227Z,45.10
2024-01-12T01:55:58.309Z,42.58
2024-01-12T01:58:26.700Z,48.08
2024-01-12T02:00:54.891Z,41.78
2024-01-12T02:03:25.210Z,42.42
2024-01-12T02:05:57.905Z,41.03
2024-01-12T02:08:26.333Z,41.10
2024-01-12T02:10:54.398Z,42.80
2024-01-12T02:13:23.797Z,44.83
2024-01-12T02:15:51.651Z,36.58
2024-01-12T02:18:19.410Z,45.78
2024-01-12T02:20:49.264Z,41.20
2024-01-12T02:23:18.668Z,40.67
2024-01-12T02:25:46.361Z,42.70
2024-01-12T02:28:14.553Z,39.20
2024-01-12T02:30:42.294Z,43.65
2024-01-12T02:33:10.383Z,35.60
2024-01-12T02:35:38.241Z,41.83
2024-01-12T02:38:05.898Z,38.75
2024-01-12T02:40:34.819Z,41.95
2024-01-12T02:43:02.933Z,39.03
2024-01-12T02:45:30.609Z,36.55
2024-01-12T02:47:58.366Z,36.85
2024-01-12T02:50:26.185Z,42.40
2024-01-12T02:52:54.008Z,33.75
2024-01-12T02:55:21.599Z,41.50
2024-01-12T02:57:50.597Z,36.35
2024-01-12T03:00:18.603Z,34.15
2024-01-12T03:02:46.543Z,37.10
2024-01-12T03:05:14.369Z,37.97
2024-01-12T03:07:42.120Z,38.67
2024-01-12T03:10:10.676Z,36.33
2024-01-12T03:12:38.350Z,33.75
2024-01-12T03:15:08.371Z,37.38
2024-01-12T03:17:36.350Z,40.88
2024-01-12T03:20:06.139Z,44.65
2024-01-12T03:22:33.771Z,41.55
2024-01-12T03:25:01.952Z,40.58
2024-01-12T03:27:29.581Z,36.20
2024-01-12T03:29:57.450Z,37.80
2024-01-12T03:32:26.778Z,34.60
2024-01-12T03:34:54.577Z,34.10
2024-01-12T03:37:22.215Z,40.47
2024-01-12T03:39:49.975Z,35.08
2024-01-12T03:42:18.090Z,39.80
2024-01-12T03:44:45.709Z,38.13
2024-01-12T03:47:13.479Z,40.65
2024-01-12T03:49:42.883Z,41.20
2024-01-12T03:52:15.404Z,38.40
2024-01-12T03:54:44.225Z,35.78
2024-01-12T03:57:11.966Z,37.75
2024-01-12T03:59:39.598Z,40.13
2024-01-12T04:02:07.526Z,39.92
2024-01-12T04:04:35.110Z,43.90
2024-01-12T04:07:04.425Z,42.03
2024-01-12T04:09:32.059Z,42.35
2024-01-12T04:11:59.678Z,45.47
2024-01-12T04:14:27.398Z,46.50
2024-01-12T04:16:55.095Z,44.35
2024-01-12T04:19:22.787Z,47.50
2024-01-12T04:21:50.416Z,42.60
2024-01-12T04:24:19.379Z,41.97
2024-01-12T04:26:47.124Z,39.70
2024-01-12T04:29:14.851Z,38.58
2024-01-12T04:31:42.691Z,38.20
2024-01-12T04:34:10.483Z,39.13
2024-01-12T04:36:38.215Z,37.38
2024-01-12T04:39:05.957Z,37.85
2024-01-12T04:41:34.963Z,42.35
2024-01-12T04:44:02.691Z,34.85
2024-01-12T04:46:30.683Z,30.90
2024-01-12T04:48:58.507Z,34.90
2024-01-12T04:51:26.216Z,35.80
2024-01-12T04:53:53.930Z,31.98
2024-01-12T04:56:21.644Z,37.15
2024-01-12T04:58:50.851Z,36.28
2024-01-12T05:01:18.726Z,36.58
2024-01-12T05:03:46.439Z,38.03
2024-01-12T05:06:14.227Z,35.22
2024-01-12T05:08:41.986Z,35.17
2024-01-12T05:11:09.640Z,36.15
2024-01-12T05:13:37.355Z,34.15
2024-01-12T05:16:06.637Z,32.67
2024-01-12T05:18:34.482Z,35.20
2024-01-12T05:21:02.285Z,36.47
2024-01-12T05:23:29.932Z,35.28
2024-01-12T05:25:57.693Z,35.42
2024-01-12T05:28:25.312Z,30.67
2024-01-12T05:30:53.208Z,32.20
2024-01-12T05:33:22.273Z,29.25
2024-01-12T05:35:49.970Z,32.53
2024-01-12T05:38:17.608Z,29.77
2024-01-12T05:40:45.287Z,28.73
2024-01-12T05:43:12.874Z,35.45
2024-01-12T05:45:40.522Z,33.35
2024-01-12T05:48:08.583Z,37.03
2024-01-12T05:50:37.799Z,35.47
2024-01-12T05:53:07.398Z,34.25
2024-01-12T05:55:35.806Z,34.42
2024-01-12T05:58:04.387Z,34.67
2024-01-12T06:00:33.556Z,31.52
2024-01-12T06:03:01.292Z,33.40
2024-01-12T06:05:29.060Z,31.15
2024-01-12T06:07:58.002Z,32.67
2024-01-12T06:10:25.609Z,33.05
2024-01-12T06:12:53.854Z,32.67
2024-01-12T06:15:21.602Z,31.67
2024-01-12T06:17:50.016Z,31.08
2024-01-12T06:20:17.908Z,30.80
2024-01-12T06:22:45.486Z,36.35
2024-01-12T06:25:14.564Z,33.50
2024-01-12T06:27:42.738Z,35.97
2024-01-12T06:30:10.968Z,33.70
2024-01-12T06:32:39.473Z,33.33
2024-01-12T06:35:10.197Z,32.63
2024-01-12T06:37:38.018Z,31.83
2024-01-12T06:40:06.856Z,38.50
2024-01-12T06:42:35.840Z,38.08
2024-01-12T06:45:04.710Z,35.88
2024-01-12T06:47:32.446Z,41.50
2024-01-12T06:50:00.249Z,32.35
2024-01-12T06:52:28.077Z,34.13
2024-01-12T06:54:55.884Z,35.78
2024-01-12T06:57:23.763Z,37.08
2024-01-12T06:59:52.771Z,31.67
2024-01-12T07:02:20.523Z,38.38
2024-01-12T07:04:48.140Z,35.20
2024-01-12T07:07:15.832Z,37.22
2024-01-12T07:09:43.513Z,41.28
2024-01-12T07:12:11.199Z,38.10
2024-01-12T07:14:39.103Z,36.17
2024-01-12T07:17:08.086Z,33.45
2024-01-12T07:19:35.809Z,32.35
2024-01-12T07:22:03.589Z,35.08
2024-01-12T07:24:31.188Z,34.60
2024-01-12T07:26:58.926Z,34.22
2024-01-12T07:29:26.646Z,32.00
2024-01-12T07:31:55.812Z,34.90
2024-01-12T07:34:26.379Z,37.22
2024-01-12T07:36:54.908Z,36.38
2024-01-12T07:39:22.519Z,36.92
2024-01-12T07:41:50.168Z,70.45
2024-01-12T07:44:18.495Z,81.47
2024-01-12T07:46:46.099Z,83.85
2024-01-12T07:49:13.736Z,88.90
2024-01-12T07:51:42.953Z,82.63
2024-01-12T07:54:10.686Z,70.35
2024-01-12T07:56:38.360Z,74.13
2024-01-12T07:59:05.938Z,56.40
2024-01-12T08:01:33.556Z,56.75
2024-01-12T08:04:01.157Z,52.50
2024-01-12T08:06:28.934Z,37.88
2024-01-12T08:08:57.978Z,30.48
2024-01-12T08:11:32.188Z,101.05
2024-01-12T08:14:07.896Z,69.28
2024-01-12T08:16:35.551Z,54.35
2024-01-12T08:19:03.210Z,46.08
2024-01-12T08:21:40.862Z,47.72
2024-01-12T08:24:17.613Z,51.38
2024-01-12T08:26:46.740Z,48.53
2024-01-12T08:29:14.533Z,39.00
2024-01-12T08:31:43.077Z,43.78
2024-01-12T08:34:11.222Z,41.22
2024-01-12T08:36:38.924Z,37.05
2024-01-12T08:39:06.627Z,44.97
2024-01-12T08:41:35.736Z,38.40
2024-01-12T08:44:03.532Z,40.15
2024-01-12T08:46:31.163Z,41.30
2024-01-12T08:48:59.934Z,44.50
2024-01-12T08:51:27.690Z,40.47
2024-01-12T08:53:55.438Z,41.70
2024-01-12T08:56:23.164Z,39.00
2024-01-12T08:58:52.159Z,36.92
2024-01-12T09:01:20.233Z,37.60
2024-01-12T09:03:50.695Z,39.92
2024-01-12T09:06:20.383Z,36.80
2024-01-12T09:08:48.145Z,41.67
2024-01-12T09:11:15.859Z,37.15
2024-01-12T09:13:43.552Z,44.05
2024-01-12T09:16:13.140Z,34.40
2024-01-12T09:18:41.008Z,36.17
2024-01-12T09:21:08.994Z,42.63
2024-01-12T09:23:36.886Z,38.90
2024-01-12T09:26:04.641Z,36.75
2024-01-12T09:28:32.192Z,37.75
2024-01-12T09:31:00.162Z,35.67
2024-01-12T09:33:29.218Z,32.22
2024-01-12T09:35:57.079Z,30.65
2024-01-12T09:38:24.844Z,31.50
2024-01-12T09:40:53.377Z,34.22
2024-01-12T09:43:23.963Z,31.92
2024-01-12T09:45:53.216Z,34.42
2024-01-12T09:48:22.150Z,32.10
2024-01-12T09:50:53.064Z,38.67
2024-01-12T09:53:22.688Z,30.38
2024-01-12T09:56:00.180Z,35.42
2024-01-12T09:58:31.881Z,31.20
2024-01-12T10:00:59.639Z,34.10
2024-01-12T10:03:27.672Z,30.33
2024-01-12T10:05:56.845Z,33.08
2024-01-12T10:08:24.560Z,32.35
2024-01-12T10:10:52.599Z,31.88
2024-01-12T10:13:20.284Z,29.48
2024-01-12T10:15:47.980Z,36.33
2024-01-12T10:18:15.887Z,32.88
2024-01-12T10:20:43.586Z,33.63
2024-01-12T10:23:12.569Z,32.47
2024-01-12T10:25:40.227Z,31.77
2024-01-12T10:28:07.952Z,35.90
2024-01-12T10:30:36.750Z,32.38
2024-01-12T10:33:04.736Z,33.00
2024-01-12T10:35:32.511Z,26.73
2024-01-12T10:38:03.543Z,28.55
2024-01-12T10:40:32.618Z,31.42
2024-01-12T10:43:05.656Z,30.55
2024-01-12T10:45:34.302Z,26.92
2024-01-12T10:48:05.631Z,28.48
2024-01-12T10:50:37.212Z,24.08
2024-01-12T10:53:12.523Z,24.38
2024-01-12T10:55:49.492Z,27.58
2024-01-12T10:58:18.543Z,25.77
2024-01-12T11:00:47.215Z,26.65
2024-01-12T11:03:17.554Z,23.42
2024-01-12T11:05:46.328Z,23.83
2024-01-12T11:08:14.521Z,23.38
2024-01-12T11:10:52.129Z,21.33
2024-01-12T11:13:20.310Z,27.58
2024-01-12T11:15:52.045Z,20.88
2024-01-12T11:18:20.573Z,21.27
2024-01-12T11:20:48.465Z,20.80
2024-01-12T11:23:16.248Z,18.63
2024-01-12T11:25:45.969Z,19.50
2024-01-12T11:28:15.875Z,18.13
2024-01-12T11:30:43.871Z,19.05
2024-01-12T11:33:11.826Z,21.33
2024-01-12T11:35:40.740Z,21.13
2024-01-12T11:38:11.269Z,18.42
2024-01-12T11:40:39.607Z,20.70
2024-01-12T11:43:16.609Z,19.83
2024-01-12T11:45:45.484Z,20.10
2024-01-12T11:48:16.099Z,21.05
2024-01-12T11:50:43.920Z,22.42
2024-01-12T11:53:11.652Z,19.80
2024-01-12T11:55:41.292Z,20.38
2024-01-12T11:58:10.244Z,22.13
2024-01-12T12:00:37.907Z,22.08
2024-01-12T12:03:06.182Z,21.65
2024-01-12T12:05:33.984Z,23.90
2024-01-12T12:08:01.813Z,21.58
2024-01-12T12:10:37.381Z,22.27
2024-01-12T12:13:12.589Z,20.73
2024-01-12T12:15:40.235Z,22.10
2024-01-12T12:18:08.451Z,22.15
2024-01-12T12:20:36.696Z,17.58
2024-01-12T12:23:04.759Z,17.35
2024-01-12T12:25:32.739Z,21.08
2024-01-12T12:28:00.525Z,19.70
2024-01-12T12:30:30.912Z,21.13
2024-01-12T12:33:01.730Z,17.05
2024-01-12T12:35:29.642Z,16.55
2024-01-12T12:38:02.664Z,18.48
2024-01-12T12:40:30.721Z,14.55
2024-01-12T12:42:59.781Z,14.95
2024-01-12T12:45:28.454Z,16.00
2024-01-12T12:47:59.303Z,15.45
2024-01-12T12:50:27.383Z,18.30
2024-01-12T12:52:55.076Z,18.23
2024-01-12T12:55:23.239Z,16.35
2024-01-12T12:57:52.129Z,18.20
2024-01-12T13:00:20.157Z,17.10
2024-01-12T13:02:49.564Z,16.65
2024-01-12T13:05:22.908Z,17.65
2024-01-12T13:07:51.397Z,18.02
2024-01-12T13:10:19.029Z,17.02
2024-01-12T13:12:46.674Z,16.05
2024-01-12T13:15:14.356Z,16.42
2024-01-12T13:17:43.040Z,16.02
2024-01-12T13:20:12.962Z,15.25
2024-01-12T13:22:42.086Z,12.30
2024-01-12T13:25:10.042Z,12.80
2024-01-12T13:27:38.615Z,14.18
2024-01-12T13:30:09.258Z,15.73
2024-01-12T13:32:37.457Z,13.93
2024-01-12T13:35:06.030Z,12.52
2024-01-12T13:37:33.787Z,14.20
2024-01-12T13:40:02.988Z,12.73
2024-01-12T13:42:30.727Z,13.48
2024-01-12T13:44:58.674Z,14.65
2024-01-12T13:47:26.470Z,15.25
2024-01-12T13:49:54.255Z,16.10
2024-01-12T13:52:22.614Z,14.27
2024-01-12T13:54:50.516Z,14.70
2024-01-12T13:57:19.982Z,14.77
2024-01-12T13:59:47.658Z,14.05
2024-01-12T14:02:15.438Z,15.68
2024-01-12T14:04:43.538Z,18.65
2024-01-12T14:07:11.327Z,16.15
2024-01-12T14:09:39.229Z,21.20
2024-01-12T14:12:09.918Z,17.17
2024-01-12T14:14:39.959Z,17.48
2024-01-12T14:17:07.591Z,16.48
2024-01-12T14:19:35.365Z,15.25
2024-01-12T14:22:03.069Z,20.10
2024-01-12T14:24:30.674Z,16.98
2024-01-12T14:26:58.306Z,17.58
2024-01-12T14:29:26.126Z,15.80
2024-01-12T14:31:56.141Z,15.80
2024-01-12T14:34:24.010Z,15.45
2024-01-12T14:36:51.851Z,17.40
2024-01-12T14:39:19.528Z,17.27
2024-01-12T14:41:48.517Z,15.65
2024-01-12T14:44:17.043Z,15.88
2024-01-12T14:46:45.061Z,15.00
2024-01-12T14:49:15.365Z,15.23
2024-01-12T14:51:43.939Z,17.77
2024-01-12T14:54:11.622Z,18.15
2024-01-12T14:56:39.344Z,18.15
2024-01-12T14:59:07.045Z,17.98
2024-01-12T15:01:34.748Z,19.27
2024-01-12T15:04:10.970Z,26.70
2024-01-12T15:06:47.915Z,19.23
2024-01-12T15:09:17.350Z,18.33
2024-01-12T15:11:47.405Z,17.13
2024-01-12T15:14:15.763Z,17.23
2024-01-12T15:16:44.886Z,19.25
2024-01-12T15:19:13.074Z,16.77
2024-01-12T15:21:40.993Z,17.85
2024-01-12T15:24:10.054Z,17.92
2024-01-12T15:26:38.102Z,18.55
2024-01-12T15:29:05.786Z,16.52
2024-01-12T15:31:33.601Z,19.65
2024-01-12T15:34:01.451Z,17.23
2024-01-12T15:36:29.327Z,17.45
2024-01-12T15:38:57.020Z,18.02
2024-01-12T15:41:26.019Z,19.25
2024-01-12T15:43:53.843Z,18.05
2024-01-12T15:46:21.443Z,17.88
2024-01-12T15:48:49.233Z,17.92
2024-01-12T15:51:17.293Z,17.17
2024-01-12T15:53:45.158Z,16.83
2024-01-12T15:56:12.800Z,17.75
2024-01-12T15:58:41.814Z,42.00
2024-01-12T16:01:09.483Z,43.72
2024-01-12T16:03:37.142Z,28.40
2024-01-12T16:06:08.610Z,20.48
2024-01-12T16:08:36.393Z,18.25
2024-01-12T16:11:04.024Z,20.05
2024-01-12T16:13:31.590Z,22.25
2024-01-12T16:16:01.292Z,19.70
2024-01-12T16:18:28.996Z,21.52
2024-01-12T16:20:56.777Z,21.27
2024-01-12T16:23:24.460Z,21.60
2024-01-12T16:25:52.160Z,21.77
2024-01-12T16:28:19.890Z,25.23
2024-01-12T16:30:47.636Z,21.85
2024-01-12T16:33:16.822Z,23.58
2024-01-12T16:35:44.535Z,22.20
2024-01-12T16:38:12.157Z,22.20
2024-01-12T16:40:39.996Z,24.55
2024-01-12T16:43:07.673Z,22.60
2024-01-12T16:45:35.333Z,23.27
2024-01-12T16:48:03.106Z,22.80
2024-01-12T16:50:32.147Z,25.05
2024-01-12T16:52:59.869Z,23.55
2024-01-12T16:55:27.935Z,26.77
2024-01-12T16:57:55.725Z,22.80
2024-01-12T17:00:23.440Z,23.75
2024-01-12T17:02:51.172Z,22.70
2024-01-12T17:05:18.842Z,23.70
2024-01-12T17:07:48.447Z,23.40
2024-01-12T17:10:16.366Z,18.20
2024-01-12T17:12:43.942Z,20.48
2024-01-12T17:15:17.455Z,20.83
2024-01-12T17:17:45.735Z,23.05
2024-01-12T17:20:13.899Z,21.73
2024-01-12T17:22:41.618Z,24.90
2024-01-12T17:25:11.372Z,21.33
2024-01-12T17:27:38.999Z,23.92
2024-01-12T17:30:07.807Z,26.02
2024-01-12T17:32:35.559Z,19.50
2024-01-12T17:35:03.292Z,20.15
2024-01-12T17:37:31.062Z,22.92
2024-01-12T17:39:58.693Z,22.48
2024-01-12T17:42:27.817Z,20.27
2024-01-12T17:44:55.386Z,20.73
2024-01-12T17:47:23.138Z,23.55
2024-01-12T17:49:51.900Z,21.83
2024-01-12T17:52:21.713Z,23.30
2024-01-12T17:54:49.800Z,38.28
2024-01-12T17:57:17.482Z,24.10
2024-01-12T17:59:46.507Z,23.27
2024-01-12T18:02:14.893Z,21.63
2024-01-12T18:04:43.397Z,20.85
2024-01-12T18:07:10.996Z,19.10
2024-01-12T18:09:38.554Z,18.48
2024-01-12T18:12:07.260Z,28.08
2024-01-12T18:14:37.759Z,25.85
2024-01-12T18:17:07.973Z,21.05
2024-01-12T18:19:35.829Z,20.38
2024-01-12T18:22:03.513Z,25.10
2024-01-12T18:24:31.107Z,20.23
2024-01-12T18:26:58.792Z,30.90
2024-01-12T18:29:26.886Z,25.63
2024-01-12T18:31:55.054Z,22.50
2024-01-12T18:34:24.330Z,21.60
2024-01-12T18:36:52.160Z,19.30
2024-01-12T18:39:19.870Z,21.63
2024-01-12T18:41:47.590Z,18.88
2024-01-12T18:44:15.265Z,18.73
2024-01-12T18:46:43.760Z,21.80
2024-01-12T18:49:11.593Z,19.48
2024-01-12T18:51:41.828Z,18.63
2024-01-12T18:54:10.785Z,24.45
2024-01-12T18:56:38.599Z,23.33
2024-01-12T18:59:06.237Z,26.63
2024-01-12T19:01:36.975Z,22.98
2024-01-12T19:04:05.108Z,26.75
2024-01-12T19:06:32.855Z,24.90
2024-01-12T19:09:05.640Z,24.00
2024-01-12T19:11:33.774Z,26.30
2024-01-12T19:14:01.451Z,25.88
2024-01-12T19:16:29.337Z,30.75
2024-01-12T19:18:57.256Z,27.83
2024-01-12T19:21:24.939Z,27.75
2024-01-12T19:23:52.642Z,25.67
2024-01-12T19:26:21.646Z,24.27
2024-01-12T19:28:49.267Z,28.15
2024-01-12T19:31:23.420Z,30.17
2024-01-12T19:33:51.287Z,28.60
2024-01-12T19:36:19.465Z,28.67
2024-01-12T19:38:47.277Z,32.92
2024-01-12T19:41:24.495Z,26.88
2024-01-12T19:43:52.389Z,28.00
2024-01-12T19:46:20.023Z,28.65
2024-01-12T19:48:47.867Z,32.20
2024-01-12T19:51:15.680Z,25.42
2024-01-12T19:53:43.792Z,27.80
2024-01-12T19:56:11.485Z,25.65
2024-01-12T19:58:40.770Z,29.85
2024-01-12T20:01:10.521Z,26.60
2024-01-12T20:03:39.313Z,28.98
2024-01-12T20:06:07.227Z,28.00
2024-01-12T20:08:35.121Z,26.98
2024-01-12T20:11:05.497Z,27.83
2024-01-12T20:13:34.713Z,27.10
2024-01-12T20:16:03.899Z,25.65
2024-01-12T20:18:31.691Z,29.05
2024-01-12T20:20:59.388Z,25.10
2024-01-12T20:23:28.328Z,25.38
2024-01-12T20:25:56.139Z,28.25
2024-01-12T20:28:23.711Z,25.25
2024-01-12T20:30:51.441Z,24.05
2024-01-12T20:33:20.733Z,27.60
2024-01-12T20:35:49.359Z,30.08
2024-01-12T20:38:17.271Z,26.88
2024-01-12T20:40:45.935Z,25.23
2024-01-12T20:43:13.610Z,30.10
2024-01-12T20:45:43.762Z,29.25
2024-01-12T20:48:12.876Z,27.08
2024-01-12T20:50:41.945Z,27.60
2024-01-12T20:53:09.589Z,28.23
2024-01-12T20:55:37.195Z,26.77
2024-01-12T20:58:05.077Z,29.13
2024-01-12T21:00:34.142Z,25.65
2024-01-12T21:03:02.065Z,26.25
2024-01-12T21:05:29.823Z,26.10
2024-01-12T21:07:58.881Z,25.75
2024-01-12T21:10:26.661Z,26.52
2024-01-12T21:12:54.255Z,28.08
2024-01-12T21:15:21.879Z,26.45
2024-01-12T21:17:50.511Z,24.35
2024-01-12T21:20:18.247Z,26.85
2024-01-12T21:22:45.865Z,26.20
2024-01-12T21:25:15.071Z,24.58
2024-01-12T21:27:43.236Z,27.15
2024-01-12T21:30:11.946Z,29.02
2024-01-12T21:32:40.289Z,29.00
2024-01-12T21:35:08.706Z,27.35
2024-01-12T21:37:36.422Z,26.73
2024-01-12T21:40:05.072Z,26.58
2024-01-12T21:42:34.275Z,26.25
2024-01-12T21:45:02.018Z,26.77
2024-01-12T21:47:29.936Z,28.05
2024-01-12T21:49:57.716Z,25.58
2024-01-12T21:52:25.315Z,26.58
2024-01-12T21:54:52.978Z,29.52
2024-01-12T21:57:20.753Z,27.02
2024-01-12T21:59:49.924Z,27.13
2024-01-12T22:02:17.593Z,27.02
2024-01-12T22:04:45.193Z,26.33
2024-01-12T22:07:13.817Z,25.95
2024-01-12T22:09:41.539Z,25.65
2024-01-12T22:12:10.043Z,27.65
2024-01-12T22:14:37.890Z,29.15
2024-01-12T22:17:06.863Z,28.55
2024-01-12T22:19:34.630Z,27.38
2024-01-12T22:22:02.294Z,26.45
2024-01-12T22:24:29.904Z,26.98
2024-01-12T22:26:57.640Z,28.02
2024-01-12T22:29:25.262Z,27.35
2024-01-12T22:31:52.912Z,22.00
2024-01-12T22:34:21.880Z,26.58
2024-01-12T22:36:49.608Z,24.42
2024-01-12T22:39:17.227Z,19.65
2024-01-12T22:41:44.937Z,16.95
2024-01-12T22:44:12.632Z,16.73
2024-01-12T22:46:40.650Z,18.83
2024-01-12T22:49:11.299Z,17.30
2024-01-12T22:51:41.220Z,20.85
2024-01-12T22:54:08.980Z,20.67
2024-01-12T22:56:36.820Z,15.48
2024-01-12T22:59:04.516Z,17.60
2024-01-12T23:01:32.147Z,16.15
2024-01-12T23:03:59.934Z,16.00
2024-01-12T23:06:27.715Z,18.05
2024-01-12T23:08:56.788Z,15.65
2024-01-12T23:11:24.440Z,16.27
2024-01-12T23:13:52.091Z,18.08
2024-01-12T23:16:20.095Z,19.10
2024-01-12T23:18:47.820Z,15.68
2024-01-12T23:21:15.551Z,18.92
2024-01-12T23:23:46.090Z,19.10
2024-01-12T23:26:15.331Z,15.88
2024-01-12T23:28:43.005Z,16.27
2024-01-12T23:31:11.348Z,16.17
2024-01-12T23:33:39.141Z,19.08
2024-01-12T23:36:07.258Z,16.50
2024-01-12T23:38:35.671Z,17.85
2024-01-12T23:41:04.401Z,18.27
2024-01-12T23:43:33.631Z,16.92
2024-01-12T23:46:01.599Z,14.63
2024-01-12T23:48:34.726Z,16.63
2024-01-12T23:51:05.884Z,18.20
2024-01-12T23:53:33.693Z,17.20
2024-01-12T23:56:01.470Z,20.40
2024-01-12T23:58:34.699Z,20.40
